createdAt,value
2018-09-14T00:00:50.375Z,23.12
2018-09-14T00:15:51.036Z,23.08
2018-09-14T00:30:52.917Z,22.97
2018-09-14T00:45:50.767Z,22.99
2018-09-14T01:00:51.094Z,22.92
2018-09-14T01:15:52.024Z,22.86
2018-09-14T01:30:51.272Z,22.86
2018-09-14T01:45:51.178Z,22.70
2018-09-14T02:00:51.103Z,22.64
2018-09-14T02:15:50.342Z,22.68
2018-09-14T02:30:50.744Z,22.49
2018-09-14T02:45:50.238Z,21.79
2018-09-14T03:00:50.699Z,19.79
2018-09-14T03:15:52.891Z,18.59
2018-09-14T04:30:51.192Z,17.04
2018-09-14T05:15:52.353Z,19.51
2018-09-14T05:45:51.108Z,21.74
2018-09-14T06:00:50.512Z,22.99
2018-09-14T06:15:51.427Z,24.31
2018-09-14T06:30:50.757Z,25.29
2018-09-14T06:45:50.839Z,26.29
2018-09-14T07:00:50.676Z,27.63
2018-09-14T07:15:50.078Z,28.57
2018-09-14T07:30:51.740Z,29.36
2018-09-14T07:45:51.073Z,29.96
2018-09-14T08:00:51.188Z,30.68
2018-09-14T08:15:50.469Z,31.17
2018-09-14T08:30:50.326Z,31.30
2018-09-14T08:45:50.401Z,31.76
2018-09-14T09:00:51.560Z,31.16
2018-09-14T09:15:51.892Z,30.95
2018-09-14T09:30:53.126Z,30.82
2018-09-14T09:45:51.528Z,30.84
2018-09-14T10:00:55.774Z,30.63
2018-09-14T10:15:53.006Z,30.78
2018-09-14T10:30:51.105Z,30.90
2018-09-14T10:45:51.036Z,30.40
2018-09-14T11:00:50.887Z,30.88
2018-09-14T11:15:50.309Z,31.10
2018-09-14T11:30:50.816Z,30.80
2018-09-14T11:45:51.629Z,30.32
2018-09-14T12:00:52.293Z,29.67
2018-09-14T12:15:51.439Z,28.92
2018-09-14T12:30:51.445Z,28.58
2018-09-14T12:45:51.186Z,28.28
2018-09-14T13:00:50.597Z,27.88
2018-09-14T13:15:51.243Z,27.60
2018-09-14T13:30:55.405Z,27.39
2018-09-14T13:45:51.205Z,27.03
2018-09-14T14:00:51.139Z,26.68
2018-09-14T14:15:50.005Z,26.39
2018-09-14T14:30:50.917Z,26.09
2018-09-14T14:45:53.940Z,25.90
2018-09-14T15:00:50.700Z,25.93
2018-09-14T15:15:50.690Z,25.71
2018-09-14T15:30:53.595Z,25.69
2018-09-14T15:45:49.942Z,25.68
2018-09-14T16:00:49.978Z,25.27
2018-09-14T16:15:50.640Z,24.74
2018-09-14T16:30:50.647Z,24.31
2018-09-14T17:00:52.867Z,24.88
2018-09-14T17:15:51.395Z,24.91
2018-09-14T17:30:50.535Z,23.91
2018-09-14T17:45:51.802Z,23.17
2018-09-14T18:00:51.289Z,22.67
2018-09-14T18:15:51.002Z,22.29
2018-09-14T18:30:51.533Z,21.89
2018-09-14T19:00:51.102Z,21.44
2018-09-14T19:45:51.146Z,20.80
2018-09-14T20:00:51.043Z,20.62
2018-09-14T20:15:51.557Z,20.42
2018-09-14T20:30:51.349Z,20.27
2018-09-14T20:45:53.204Z,20.18
2018-09-14T21:00:51.285Z,20.08
2018-09-14T21:30:50.625Z,19.72
2018-09-14T21:45:51.031Z,19.49
